Home > Products > Valid Products > TAF

000
FTUS41 KRLX 231000 AAA
TAFHTS
TAF AMD
KHTS 231000Z 2310/2406 VRB03KT P6SM SCT045=



000
FTUS41 KRLX 231000 AAA
TAFCRW
TAF AMD
KCRW 231000Z 2310/2406 VRB03KT P6SM SCT060=



000
FTUS41 KRLX 230925 AAA
TAFEKN
TAF AMD
KEKN 230925Z 2309/2406 00000KT P6SM BKN250
     FM231600 24006KT P6SM SCT050 SCT200
     FM240000 00000KT P6SM FEW110=



000
FTUS41 KRLX 230903 AAA
TAFBKW
TAF AMD
KBKW 230903Z 2309/2406 VRB03KT P6SM SCT150
     FM231500 VRB03KT P6SM SCT035=



000
FTUS41 KRLX 230903 AAA
TAFBKW
TAF AMD
KBKW 230903Z 2309/2406 VRB03KT P6SM SCT150
     FM231500 VRB03KT P6SM SCT035=



000
FTUS41 KRLX 230902 AAA
TAFCKB
TAF AMD
KCKB 230902Z 2309/2406 VRB03KT P6SM SCT250
     FM231900 VRB04KT P6SM FEW050=



000
FTUS41 KRLX 230902 AAA
TAFPKB
TAF AMD
KPKB 230902Z 2309/2406 05004KT P6SM SCT250
     FM231900 VRB03KT P6SM FEW050=



000
FTUS41 KRLX 230521
TAFCKB
TAF
KCKB 230521Z 2306/2406 VRB03KT P6SM SCT250
     FM231900 VRB04KT P6SM FEW050=



000
FTUS41 KRLX 230521
TAFPKB
TAF
KPKB 230521Z 2306/2406 05004KT P6SM SCT250
     FM231900 VRB03KT P6SM FEW050=



000
FTUS41 KRLX 230521
TAFHTS
TAF
KHTS 230521Z 2306/2406 VRB03KT P6SM SCT045=



000
FTUS41 KRLX 230521
TAFBKW
TAF
KBKW 230521Z 2306/2406 VRB03KT P6SM SCT150
     FM231500 VRB03KT P6SM SCT035=



000
FTUS41 KRLX 230521
TAFEKN
TAF
KEKN 230521Z 2306/2406 00000KT P6SM BKN250
     FM231600 24006KT P6SM SCT050 SCT200
     FM240000 00000KT P6SM FEW110=



000
FTUS41 KRLX 230521
TAFCRW
TAF
KCRW 230521Z 2306/2406 VRB03KT P6SM SCT060=



000
FTUS41 KRLX 230521
TAFBKW
TAF
KBKW 230521Z 2306/2406 VRB03KT P6SM SCT150
     FM231500 VRB03KT P6SM SCT035=



000
FTUS41 KRLX 230521
TAFHTS
TAF
KHTS 230521Z 2306/2406 VRB03KT P6SM SCT045=



000
FTUS41 KRLX 230521
TAFCKB
TAF
KCKB 230521Z 2306/2406 VRB03KT P6SM SCT250
     FM231900 VRB04KT P6SM FEW050=



000
FTUS41 KRLX 230521
TAFPKB
TAF
KPKB 230521Z 2306/2406 05004KT P6SM SCT250
     FM231900 VRB03KT P6SM FEW050=



000
FTUS41 KRLX 230521
TAFEKN
TAF
KEKN 230521Z 2306/2406 00000KT P6SM BKN250
     FM231600 24006KT P6SM SCT050 SCT200
     FM240000 00000KT P6SM FEW110=



000
FTUS41 KRLX 230521
TAFCRW
TAF
KCRW 230521Z 2306/2406 VRB03KT P6SM SCT060=



000
FTUS41 KRLX 230258 AAA
TAFCKB
TAF AMD
KCKB 230258Z 2303/2324 36008KT 6SM BR BKN050
     FM230500 36003KT 6SM BR SCT050
     FM231200 29004KT P6SM FEW140=



000
FTUS41 KRLX 230258 AAA
TAFCKB
TAF AMD
KCKB 230258Z 2303/2324 36008KT 6SM BR BKN050
     FM230500 36003KT 6SM BR SCT050
     FM231200 29004KT P6SM FEW140=



000
FTUS41 KRLX 230236 AAA
TAFBKW
TAF AMD
KBKW 230236Z 2303/2324 25005KT P6SM FEW050
     FM230700 27003KT P6SM SCT050
     FM232000 11005KT P6SM SCT050=



000
FTUS41 KRLX 230236 AAA
TAFBKW
TAF AMD
KBKW 230236Z 2303/2324 25005KT P6SM FEW050
     FM230700 27003KT P6SM SCT050
     FM232000 11005KT P6SM SCT050=



000
FTUS41 KRLX 230235 AAA
TAFEKN
TAF AMD
KEKN 230235Z 2303/2324 30007KT P6SM BKN050
     FM230600 VRB03KT 6SM BR FEW070
     FM231200 VRB03KT P6SM SCT120=



000
FTUS41 KRLX 230235 AAA
TAFEKN
TAF AMD
KEKN 230235Z 2303/2324 30007KT P6SM BKN050
     FM230600 VRB03KT 6SM BR FEW070
     FM231200 VRB03KT P6SM SCT120=



000
FTUS41 KRLX 230234 AAA
TAFPKB
TAF AMD
KPKB 230234Z 2303/2324 34004KT P6SM BKN060
     FM230500 35004KT P6SM FEW150
     FM231300 VRB04KT P6SM SCT150=



000
FTUS41 KRLX 230233 AAA
TAFHTS
TAF AMD
KHTS 230233Z 2303/2324 26004KT P6SM SCT250
     FM230500 00000KT P6SM SCT050
     FM231200 09004KT P6SM SCT100
     FM231700 12004KT P6SM SCT050=



000
FTUS41 KRLX 230233 AAA
TAFCRW
TAF AMD
KCRW 230233Z 2303/2324 26004KT P6SM SCT110
     FM230600 00000KT P6SM SCT050
     FM231000 00000KT P6SM FEW130
     FM231800 VRB04KT P6SM SCT050=



000
FTUS41 KRLX 222322
TAFCRW
TAF
KCRW 222322Z 2300/2324 26004KT P6SM SCT250
     FM230400 00000KT P6SM SCT050 SCT200
     FM231000 00000KT P6SM FEW130
     FM231800 VRB04KT P6SM SCT050=



000
FTUS41 KRLX 222322
TAFCKB
TAF
KCKB 222322Z 2300/2324 31005KT P6SM VCSH BKN050
     FM230300 01006KT P6SM SCT050
     FM230900 00000KT 5SM BR SKC
     FM231500 29004KT P6SM FEW140=



000
FTUS41 KRLX 222322
TAFPKB
TAF
KPKB 222322Z 2300/2324 34004KT P6SM VCSH BKN050
     FM230300 35004KT P6SM FEW150
     FM231000 00000KT 6SM BR SKC
     FM231300 VRB04KT P6SM SCT150=



000
FTUS41 KRLX 222322
TAFBKW
TAF
KBKW 222322Z 2300/2324 29005KT P6SM FEW050
     FM230700 27003KT P6SM SCT050=



000
FTUS41 KRLX 222322
TAFBKW
TAF
KBKW 222322Z 2300/2324 29005KT P6SM FEW050
     FM230700 27003KT P6SM SCT050=



000
FTUS41 KRLX 222322
TAFEKN
TAF
KEKN 222322Z 2300/2324 30007KT P6SM VCSH BKN050
     FM230400 VRB03KT P6SM FEW100=



000
FTUS41 KRLX 222322
TAFHTS
TAF
KHTS 222322Z 2300/2324 26004KT P6SM SCT250
     FM230300 00000KT P6SM SCT050
     FM231200 09004KT P6SM SCT100
     FM231700 12004KT P6SM SCT050=



000
FTUS41 KRLX 222322
TAFPKB
TAF
KPKB 222322Z 2300/2324 34004KT P6SM VCSH BKN050
     FM230300 35004KT P6SM FEW150
     FM231000 00000KT 6SM BR SKC
     FM231300 VRB04KT P6SM SCT150=



000
FTUS41 KRLX 222322
TAFCKB
TAF
KCKB 222322Z 2300/2324 31005KT P6SM VCSH BKN050
     FM230300 01006KT P6SM SCT050
     FM230900 00000KT 5SM BR SKC
     FM231500 29004KT P6SM FEW140=



000
FTUS41 KRLX 222322
TAFCRW
TAF
KCRW 222322Z 2300/2324 26004KT P6SM SCT250
     FM230400 00000KT P6SM SCT050 SCT200
     FM231000 00000KT P6SM FEW130
     FM231800 VRB04KT P6SM SCT050=



000
FTUS41 KRLX 222322
TAFEKN
TAF
KEKN 222322Z 2300/2324 30007KT P6SM VCSH BKN050
     FM230400 VRB03KT P6SM FEW100=



000
FTUS41 KRLX 222322
TAFHTS
TAF
KHTS 222322Z 2300/2324 26004KT P6SM SCT250
     FM230300 00000KT P6SM SCT050
     FM231200 09004KT P6SM SCT100
     FM231700 12004KT P6SM SCT050=



000
FTUS41 KRLX 222007 AAA
TAFEKN
TAF AMD
KEKN 222007Z 2220/2318 29010G18KT P6SM VCSH SCT030 BKN050
     FM230100 32009KT P6SM SCT030
     FM230300 35007KT P6SM SCT030
     FM230600 00000KT P6SM FEW030
     FM230700 00000KT P6SM SCT250=



000
FTUS41 KRLX 222006 AAA
TAFCKB
TAF AMD
KCKB 222006Z 2220/2318 24011G17KT P6SM VCSH SCT030 BKN060
     FM230000 29007KT P6SM SCT030
     FM230400 02004KT P6SM SCT250=



000
FTUS41 KRLX 221721
TAFBKW
TAF
KBKW 221721Z 2218/2318 32010G18KT P6SM SCT040
     FM230300 29004KT P6SM BKN250
     FM230400 VRB03KT P6SM SCT040=



000
FTUS41 KRLX 221721
TAFEKN
TAF
KEKN 221721Z 2218/2318 25010G18KT P6SM FEW035
     FM230000 28010G16KT P6SM BKN035
     FM230100 30009KT P6SM SCT030
     FM230300 35007KT P6SM SCT030
     FM230600 00000KT P6SM FEW030
     FM230700 00000KT P6SM SCT250=



000
FTUS41 KRLX 221721
TAFCKB
TAF
KCKB 221721Z 2218/2318 22010G17KT P6SM SKC
     FM222000 24011G17KT P6SM SCT040
     FM230000 29007KT P6SM SCT030
     FM230400 02004KT P6SM SCT250=



000
FTUS41 KRLX 221721
TAFPKB
TAF
KPKB 221721Z 2218/2318 21008G15KT P6SM SCT035
     FM221900 23010G15KT P6SM SCT045
     FM222200 27008KT P6SM SCT035
     FM222300 31007KT P6SM SCT030
     FM230100 34005KT P6SM BKN250=



000
FTUS41 KRLX 221721
TAFPKB
TAF
KPKB 221721Z 2218/2318 21008G15KT P6SM SCT035
     FM221900 23010G15KT P6SM SCT045
     FM222200 27008KT P6SM SCT035
     FM222300 31007KT P6SM SCT030
     FM230100 34005KT P6SM BKN250=



000
FTUS41 KRLX 221721
TAFHTS
TAF
KHTS 221721Z 2218/2318 25008KT P6SM SKC
     FM222000 26009KT P6SM SCT025
     FM230000 25005KT P6SM SCT045
     FM231000 00000KT P6SM SCT150
     FM231200 00000KT P6SM SCT030
     FM231400 VRB03KT P6SM SCT140=



000
FTUS41 KRLX 221721
TAFEKN
TAF
KEKN 221721Z 2218/2318 25010G18KT P6SM FEW035
     FM230000 28010G16KT P6SM BKN035
     FM230100 30009KT P6SM SCT030
     FM230300 35007KT P6SM SCT030
     FM230600 00000KT P6SM FEW030
     FM230700 00000KT P6SM SCT250=



000
FTUS41 KRLX 221721
TAFBKW
TAF
KBKW 221721Z 2218/2318 32010G18KT P6SM SCT040
     FM230300 29004KT P6SM BKN250
     FM230400 VRB03KT P6SM SCT040=



000
FTUS41 KRLX 221721
TAFCRW
TAF
KCRW 221721Z 2218/2318 25009KT P6SM SCT025
     FM222300 26006KT P6SM SCT050
     FM230100 27005KT P6SM BKN250
     FM230200 30004KT P6SM SCT045
     FM230800 00000KT P6SM BKN250
     FM231200 00000KT P6SM FEW025
     FM231400 00000KT P6SM SCT150=



000
FTUS41 KRLX 221721
TAFCKB
TAF
KCKB 221721Z 2218/2318 22010G17KT P6SM SKC
     FM222000 24011G17KT P6SM SCT040
     FM230000 29007KT P6SM SCT030
     FM230400 02004KT P6SM SCT250=



000
FTUS41 KRLX 221721
TAFCRW
TAF
KCRW 221721Z 2218/2318 25009KT P6SM SCT025
     FM222300 26006KT P6SM SCT050
     FM230100 27005KT P6SM BKN250
     FM230200 30004KT P6SM SCT045
     FM230800 00000KT P6SM BKN250
     FM231200 00000KT P6SM FEW025
     FM231400 00000KT P6SM SCT150=



000
FTUS41 KRLX 221721
TAFHTS
TAF
KHTS 221721Z 2218/2318 25008KT P6SM SKC
     FM222000 26009KT P6SM SCT025
     FM230000 25005KT P6SM SCT045
     FM231000 00000KT P6SM SCT150
     FM231200 00000KT P6SM SCT030
     FM231400 VRB03KT P6SM SCT140=



000
FTUS41 KRLX 221439 AAA
TAFCRW
TAF AMD
KCRW 221439Z 2215/2312 25006KT P6SM FEW200
     FM221800 25009KT P6SM BKN050
     FM230200 30004KT P6SM SCT045
     FM230800 00000KT 6SM BR SCT250=



000
FTUS41 KRLX 221439 AAA
TAFCKB
TAF AMD
KCKB 221439Z 2215/2312 23010KT P6SM SCT035
     FM221600 24011G17KT P6SM BKN080
     FM222100 27011G17KT P6SM BKN040
     FM230000 29007KT P6SM SCT040
     FM230400 02004KT P6SM FEW250=



000
FTUS41 KRLX 221439 AAA
TAFHTS
TAF AMD
KHTS 221439Z 2215/2312 20006KT P6SM SKC
     FM221800 25008KT P6SM BKN050
     FM230000 25005KT P6SM SCT045
     FM230900 00000KT 6SM BR SCT150=



000
FTUS41 KRLX 221439 AAA
TAFPKB
TAF AMD
KPKB 221439Z 2215/2312 24010G16KT P6SM SCT035
     FM222200 28008KT P6SM SCT035
     FM230000 31005KT P6SM SCT030=



000
FTUS41 KRLX 221439 AAC
TAFBKW
TAF AMD
KBKW 221439Z 2215/2312 30010KT P6SM SCT035
     FM230400 VRB03KT P6SM SCT040=



000
FTUS41 KRLX 221439 AAA
TAFEKN
TAF AMD
KEKN 221439Z 2215/2312 27008G18KT P6SM BKN035
     FM230000 28010G16KT P6SM BKN035
     FM230200 30009KT P6SM SCT030
     FM230700 00000KT 3SM BR FEW030=



000
FTUS41 KRLX 221304 AAB
TAFBKW
TAF AMD
KBKW 221304Z 2213/2312 27007KT P6SM SCT009
     FM221400 29007KT P6SM SCT200
     FM230400 VRB03KT P6SM SCT040=



000
FTUS41 KRLX 221237 AAA
TAFBKW
TAF AMD
KBKW 221237Z 2213/2312 26007KT 3SM BR BKN004
     FM221330 27007KT 6SM BR BKN007
     FM221400 27007KT 6SM BR SCT007
     FM221430 29007KT P6SM SCT200
     FM230400 VRB03KT P6SM SCT040=



000
FTUS41 KRLX 221237 AAA
TAFBKW
TAF AMD
KBKW 221237Z 2213/2312 26007KT 3SM BR BKN004
     FM221330 27007KT 6SM BR BKN007
     FM221400 27007KT 6SM BR SCT007
     FM221430 29007KT P6SM SCT200
     FM230400 VRB03KT P6SM SCT040=



000
FTUS41 KRLX 221131
TAFHTS
TAF
KHTS 221131Z 2212/2312 25006KT 5SM BR FEW002
     FM221300 25006KT P6SM FEW200
     FM221800 25008KT P6SM BKN050
     FM230000 25005KT P6SM SCT045
     FM230900 00000KT 6SM BR SCT150=



000
FTUS41 KRLX 221131
TAFCKB
TAF
KCKB 221131Z 2212/2312 23005KT 6SM BR SKC
     FM221230 23005KT P6SM SKC
     FM221800 24011G17KT P6SM BKN080
     FM222100 27011G17KT P6SM BKN040
     FM230000 29007KT P6SM SCT040
     FM230400 02004KT P6SM FEW250=



000
FTUS41 KRLX 221131
TAFEKN
TAF
KEKN 221131Z 2212/2312 28008KT 3SM BR SKC
     FM221300 28009KT P6SM SCT200
     FM222000 27013G19KT P6SM BKN045
     FM230000 28010G16KT P6SM BKN035
     FM230200 30009KT P6SM SCT030
     FM230700 00000KT 3SM BR FEW030=



000
FTUS41 KRLX 221131
TAFBKW
TAF
KBKW 221131Z 2212/2312 23007KT 1/4SM FG OVC002
      TEMPO 2212/2213 1SM BR SCT002 BKN008
     FM221300 29007KT 6SM BR SCT008
     FM221500 29007KT P6SM SCT200
     FM230400 VRB03KT P6SM SCT040=



000
FTUS41 KRLX 221131
TAFPKB
TAF
KPKB 221131Z 2212/2312 24005KT P6SM SKC
     FM221400 24007KT P6SM SCT150
     FM221600 25010G15KT P6SM BKN045
     FM222200 28008KT P6SM SCT035
     FM230000 31005KT P6SM SCT030=



000
FTUS41 KRLX 221131
TAFCRW
TAF
KCRW 221131Z 2212/2312 21005KT 3SM BR SCT001
     FM221230 23005KT 6SM BR FEW001
     FM221300 25006KT P6SM FEW200
     FM221800 25009KT P6SM BKN050
     FM230200 30004KT P6SM SCT045
     FM230800 00000KT 6SM BR SCT250=



000
FTUS41 KRLX 221131
TAFCRW
TAF
KCRW 221131Z 2212/2312 21005KT 3SM BR SCT001
     FM221230 23005KT 6SM BR FEW001
     FM221300 25006KT P6SM FEW200
     FM221800 25009KT P6SM BKN050
     FM230200 30004KT P6SM SCT045
     FM230800 00000KT 6SM BR SCT250=



000
FTUS41 KRLX 221131
TAFPKB
TAF
KPKB 221131Z 2212/2312 24005KT P6SM SKC
     FM221400 24007KT P6SM SCT150
     FM221600 25010G15KT P6SM BKN045
     FM222200 28008KT P6SM SCT035
     FM230000 31005KT P6SM SCT030=



000
FTUS41 KRLX 221131
TAFHTS
TAF
KHTS 221131Z 2212/2312 25006KT 5SM BR FEW002
     FM221300 25006KT P6SM FEW200
     FM221800 25008KT P6SM BKN050
     FM230000 25005KT P6SM SCT045
     FM230900 00000KT 6SM BR SCT150=



000
FTUS41 KRLX 221131
TAFEKN
TAF
KEKN 221131Z 2212/2312 28008KT 3SM BR SKC
     FM221300 28009KT P6SM SCT200
     FM222000 27013G19KT P6SM BKN045
     FM230000 28010G16KT P6SM BKN035
     FM230200 30009KT P6SM SCT030
     FM230700 00000KT 3SM BR FEW030=



000
FTUS41 KRLX 221131
TAFBKW
TAF
KBKW 221131Z 2212/2312 23007KT 1/4SM FG OVC002
      TEMPO 2212/2213 1SM BR SCT002 BKN008
     FM221300 29007KT 6SM BR SCT008
     FM221500 29007KT P6SM SCT200
     FM230400 VRB03KT P6SM SCT040=



000
FTUS41 KRLX 221131
TAFCKB
TAF
KCKB 221131Z 2212/2312 23005KT 6SM BR SKC
     FM221230 23005KT P6SM SKC
     FM221800 24011G17KT P6SM BKN080
     FM222100 27011G17KT P6SM BKN040
     FM230000 29007KT P6SM SCT040
     FM230400 02004KT P6SM FEW250=



000
FTUS41 KRLX 220942 AAB
TAFCRW
TAF AMD
KCRW 220942Z 2210/2306 VRB03KT 2SM BR BKN001
     FM221200 VRB03KT 3SM BR SCT001
      TEMPO 2212/2213 6SM BR
     FM221300 25006KT P6SM FEW200
     FM221800 25009KT P6SM BKN050
     FM230200 30004KT P6SM SCT045=



000
FTUS41 KRLX 220942 AAB
TAFCRW
TAF AMD
KCRW 220942Z 2210/2306 VRB03KT 2SM BR BKN001
     FM221200 VRB03KT 3SM BR SCT001
      TEMPO 2212/2213 6SM BR
     FM221300 25006KT P6SM FEW200
     FM221800 25009KT P6SM BKN050
     FM230200 30004KT P6SM SCT045=



000
FTUS41 KRLX 220906 AAA
TAFCRW
TAF AMD
KCRW 220906Z 2209/2306 VRB03KT 2SM BR FEW001 SCT030
     FM221100 VRB03KT 3SM BR SCT001
      TEMPO 2212/2213 6SM BR
     FM221300 25006KT P6SM FEW200
     FM221800 25009KT P6SM BKN050
     FM230200 30004KT P6SM SCT045=



000
FTUS41 KRLX 220905 AAA
TAFBKW
TAF AMD
KBKW 220905Z 2209/2306 29005KT 3SM BR SCT007
     FM221100 29006KT P6SM SCT008 BKN035
     FM221400 29007KT P6SM SCT200
     FM230400 VRB03KT P6SM SCT040=



000
FTUS41 KRLX 220904 AAA
TAFEKN
TAF AMD
KEKN 220904Z 2209/2306 29004KT 2SM BR BKN035
     FM221200 28008KT 5SM BR SCT035
     FM221300 28009KT P6SM SCT200
     FM222000 27013G19KT P6SM BKN040
     FM230000 32008KT P6SM SCT030
     FM230300 35007KT P6SM SCT030=



000
FTUS41 KRLX 220903 AAA
TAFCKB
TAF AMD
KCKB 220903Z 2209/2306 VRB03KT P6SM BKN040
      TEMPO 2210/2212 5SM BR
     FM221400 24007KT P6SM SCT150
     FM221800 24011G17KT P6SM BKN060
     FM222000 27011G17KT P6SM BKN060
     FM230000 29007KT P6SM SCT060
     FM230400 02004KT P6SM FEW250=



000
FTUS41 KRLX 220903 AAA
TAFPKB
TAF AMD
KPKB 220903Z 2209/2306 24005KT P6SM SCT030
      TEMPO 2210/2212 5SM BR
     FM221300 24006KT P6SM FEW080
     FM221800 25010G15KT P6SM BKN050
     FM222100 27010G15KT P6SM BKN050
     FM222300 31007KT P6SM SCT060
     FM230400 VRB03KT P6SM FEW250=



000
FTUS41 KRLX 220903 AAA
TAFPKB
TAF AMD
KPKB 220903Z 2209/2306 24005KT P6SM SCT030
      TEMPO 2210/2212 5SM BR
     FM221300 24006KT P6SM FEW080
     FM221800 25010G15KT P6SM BKN050
     FM222100 27010G15KT P6SM BKN050
     FM222300 31007KT P6SM SCT060
     FM230400 VRB03KT P6SM FEW250=



000
FTUS41 KRLX 220902 AAA
TAFHTS
TAF AMD
KHTS 220902Z 2209/2306 VRB03KT 2SM BR FEW035
     FM221200 VRB03KT 3SM BR FEW040
     FM221300 25006KT P6SM FEW200
     FM221800 25009KT P6SM BKN080
     FM230200 29004KT P6SM SCT060=



000
FTUS41 KRLX 220902 AAA
TAFHTS
TAF AMD
KHTS 220902Z 2209/2306 VRB03KT 2SM BR FEW035
     FM221200 VRB03KT 3SM BR FEW040
     FM221300 25006KT P6SM FEW200
     FM221800 25009KT P6SM BKN080
     FM230200 29004KT P6SM SCT060=



000
FTUS41 KRLX 220521
TAFEKN
TAF
KEKN 220521Z 2206/2306 29004KT 6SM -DZ BR SCT010 BKN035
     FM220800 29004KT 3SM BR BKN035
     FM221200 28008KT P6SM SCT035
     FM221400 28009KT P6SM SCT200
     FM222000 27013G19KT P6SM BKN040
     FM230000 32008KT P6SM SCT030
     FM230300 35007KT P6SM SCT030=



000
FTUS41 KRLX 220521
TAFCRW
TAF
KCRW 220521Z 2206/2306 VRB03KT 2SM BR FEW001 SCT030
      TEMPO 2206/2208 6SM BR
     FM221100 VRB03KT 3SM BR SCT001
      TEMPO 2212/2213 6SM BR
     FM221300 25006KT P6SM FEW200
     FM221800 25009KT P6SM BKN050
     FM230200 30004KT P6SM SCT045=



000
FTUS41 KRLX 220521
TAFBKW
TAF
KBKW 220521Z 2206/2306 29005KT 3SM BR BKN007
     FM221100 29006KT P6SM SCT008 BKN035
      TEMPO 2211/2212 BKN008
     FM221400 29007KT P6SM SCT200
     FM230400 VRB03KT P6SM SCT040=



000
FTUS41 KRLX 220521
TAFHTS
TAF
KHTS 220521Z 2206/2306 VRB03KT 6SM BR FEW030
     FM220800 VRB03KT 2SM BR FEW035
     FM221200 VRB03KT 3SM BR FEW040
     FM221300 25006KT P6SM FEW200
     FM221800 25009KT P6SM BKN080
     FM230200 29004KT P6SM SCT060=



000
FTUS41 KRLX 220521
TAFPKB
TAF
KPKB 220521Z 2206/2306 24005KT P6SM SCT030
      TEMPO 2208/2211 5SM BR
     FM221300 24006KT P6SM FEW080
     FM221800 25010G15KT P6SM BKN050
     FM222100 27010G15KT P6SM BKN050
     FM222300 31007KT P6SM SCT060
     FM230400 VRB03KT P6SM FEW250=



000
FTUS41 KRLX 220521
TAFCKB
TAF
KCKB 220521Z 2206/2306 VRB03KT P6SM BKN040
      TEMPO 2208/2211 5SM BR
     FM221400 24007KT P6SM SCT150
     FM221800 24011G17KT P6SM BKN060
     FM222000 27011G17KT P6SM BKN060
     FM230000 29007KT P6SM SCT060
     FM230400 02004KT P6SM FEW250=



000
FTUS41 KRLX 220521
TAFEKN
TAF
KEKN 220521Z 2206/2306 29004KT 6SM -DZ BR SCT010 BKN035
     FM220800 29004KT 3SM BR BKN035
     FM221200 28008KT P6SM SCT035
     FM221400 28009KT P6SM SCT200
     FM222000 27013G19KT P6SM BKN040
     FM230000 32008KT P6SM SCT030
     FM230300 35007KT P6SM SCT030=



000
FTUS41 KRLX 220521
TAFCRW
TAF
KCRW 220521Z 2206/2306 VRB03KT 2SM BR FEW001 SCT030
      TEMPO 2206/2208 6SM BR
     FM221100 VRB03KT 3SM BR SCT001
      TEMPO 2212/2213 6SM BR
     FM221300 25006KT P6SM FEW200
     FM221800 25009KT P6SM BKN050
     FM230200 30004KT P6SM SCT045=



000
FTUS41 KRLX 220521
TAFBKW
TAF
KBKW 220521Z 2206/2306 29005KT 3SM BR BKN007
     FM221100 29006KT P6SM SCT008 BKN035
      TEMPO 2211/2212 BKN008
     FM221400 29007KT P6SM SCT200
     FM230400 VRB03KT P6SM SCT040=



000
FTUS41 KRLX 220521
TAFHTS
TAF
KHTS 220521Z 2206/2306 VRB03KT 6SM BR FEW030
     FM220800 VRB03KT 2SM BR FEW035
     FM221200 VRB03KT 3SM BR FEW040
     FM221300 25006KT P6SM FEW200
     FM221800 25009KT P6SM BKN080
     FM230200 29004KT P6SM SCT060=



000
FTUS41 KRLX 220521
TAFPKB
TAF
KPKB 220521Z 2206/2306 24005KT P6SM SCT030
      TEMPO 2208/2211 5SM BR
     FM221300 24006KT P6SM FEW080
     FM221800 25010G15KT P6SM BKN050
     FM222100 27010G15KT P6SM BKN050
     FM222300 31007KT P6SM SCT060
     FM230400 VRB03KT P6SM FEW250=



000
FTUS41 KRLX 220521
TAFCKB
TAF
KCKB 220521Z 2206/2306 VRB03KT P6SM BKN040
      TEMPO 2208/2211 5SM BR
     FM221400 24007KT P6SM SCT150
     FM221800 24011G17KT P6SM BKN060
     FM222000 27011G17KT P6SM BKN060
     FM230000 29007KT P6SM SCT060
     FM230400 02004KT P6SM FEW250=



000
FTUS41 KRLX 220228 AAA
TAFEKN
TAF AMD
KEKN 220228Z 2202/2224 32004KT 6SM BR BKN025
     FM220500 31004KT 5SM BR SCT025
     FM220600 29003KT 2SM BR FEW015
     FM220800 00000KT 1SM BR SCT001 SCT020
     FM221200 28008KT 3SM BR FEW025
     FM221300 28012G20KT P6SM SCT035
     FM221800 27012G20KT P6SM BKN040=



000
FTUS41 KRLX 220228 AAA
TAFPKB
TAF AMD
KPKB 220228Z 2202/2224 VRB03KT P6SM FEW035
     FM220800 00000KT 5SM BR FEW020
     FM221200 25008KT P6SM FEW040
     FM221700 26010G17KT P6SM BKN050
     FM222300 32008KT P6SM FEW045=



000
FTUS41 KRLX 220228 AAA
TAFCKB
TAF AMD
KCKB 220228Z 2202/2224 26003KT P6SM BKN045
     FM220400 VRB03KT 4SM BR SCT025
     FM221000 25008KT P6SM FEW040
     FM221800 25011G19KT P6SM BKN060
     FM222200 28010G17KT P6SM SCT045=



000
FTUS41 KRLX 220228 AAA
TAFHTS
TAF AMD
KHTS 220228Z 2202/2224 31005KT P6SM SKC
     FM220300 29004KT 6SM BR SKC
     FM220600 25003KT 3SM BR FEW010
     FM221200 26008KT 5SM BR FEW015
     FM221300 30008KT P6SM SCT040=



000
FTUS41 KRLX 220228 AAA
TAFCRW
TAF AMD
KCRW 220228Z 2202/2224 31007KT 6SM BR SCT025
     FM220400 30005KT 4SM BR SCT001 SCT025
     FM220700 00000KT 2SM BR SCT001 SCT030
     FM221000 25004KT 5SM BR FEW001 FEW030
     FM221300 25006KT P6SM FEW035=



000
FTUS41 KRLX 220228 AAA
TAFBKW
TAF AMD
KBKW 220228Z 2202/2224 32009KT 3SM -DZ BR BKN004
     FM220700 29005KT 4SM BR BKN010
     FM221400 30009KT P6SM FEW030
     FM222000 28010G15KT P6SM SCT035=



000
FTUS41 KRLX 220011 CCA
TAFEKN
TAF COR
KEKN 220011Z 2200/2224 33006KT 6SM -RA BR BKN012
     FM220300 31004KT 3SM -DZ BR BKN015
     FM220600 29004KT 2SM BR BKN020
     FM220800 29004KT 1SM BR SCT001 SCT020
     FM221200 28008KT 3SM BR FEW025
     FM221300 28012G20KT P6SM SCT035
     FM221800 27012G20KT P6SM BKN040=



000
FTUS41 KRLX 220011 CCA
TAFEKN
TAF COR
KEKN 220011Z 2200/2224 33006KT 6SM -RA BR BKN012
     FM220300 31004KT 3SM -DZ BR BKN015
     FM220600 29004KT 2SM BR BKN020
     FM220800 29004KT 1SM BR SCT001 SCT020
     FM221200 28008KT 3SM BR FEW025
     FM221300 28012G20KT P6SM SCT035
     FM221800 27012G20KT P6SM BKN040=



000
FTUS41 KRLX 220007 CCA
TAFCRW
TAF COR
KCRW 220007Z 2200/2224 31007KT 2SM BR FEW008 BKN025
     FM220100 30005KT 4SM BR SCT001 BKN025
     FM220600 00000KT 2SM BR SCT001 SCT030
     FM221200 25004KT 5SM BR FEW001 FEW030
     FM221300 25006KT P6SM FEW035=



000
FTUS41 KRLX 220007 CCA
TAFCRW
TAF COR
KCRW 220007Z 2200/2224 31007KT 2SM BR FEW008 BKN025
     FM220100 30005KT 4SM BR SCT001 BKN025
     FM220600 00000KT 2SM BR SCT001 SCT030
     FM221200 25004KT 5SM BR FEW001 FEW030
     FM221300 25006KT P6SM FEW035=



000
FTUS41 KRLX 220006 CCA
TAFHTS
TAF COR
KHTS 220006Z 2200/2224 31005KT P6SM BKN035
     FM220300 29004KT 6SM BR SCT035
     FM220600 25003KT 3SM BR FEW030
     FM221200 26008KT 5SM BR FEW035
     FM221300 30008KT P6SM SCT040=



000
FTUS41 KRLX 220006 CCA
TAFHTS
TAF COR
KHTS 220006Z 2200/2224 31005KT P6SM BKN035
     FM220300 29004KT 6SM BR SCT035
     FM220600 25003KT 3SM BR FEW030
     FM221200 26008KT 5SM BR FEW035
     FM221300 30008KT P6SM SCT040=



000
FTUS41 KRLX 220005 CCA
TAFBKW
TAF COR
KBKW 220005Z 2200/2224 32009KT 3SM -DZ BR BKN006
     FM220500 29005KT 4SM BR BKN010
     FM221400 30009KT P6SM FEW030
     FM222000 28010G15KT P6SM SCT035=



000
FTUS41 KRLX 220005 CCA
TAFBKW
TAF COR
KBKW 220005Z 2200/2224 32009KT 3SM -DZ BR BKN006
     FM220500 29005KT 4SM BR BKN010
     FM221400 30009KT P6SM FEW030
     FM222000 28010G15KT P6SM SCT035=



000
FTUS41 KRLX 212337
TAFHTS
TAF
KHTS 212337Z 2200/2224 32006KT P6SM BKN025
     FM220100 31005KT P6SM BKN035
     FM220300 29004KT 6SM BR SCT035
     FM220600 25003KT 3SM BR FEW030
     FM221200 26008KT 5SM BR FEW035
     FM221300 30008KT P6SM SCT040=



000
FTUS41 KRLX 212337
TAFBKW
TAF
KBKW 212337Z 2200/2224 32009KT 6SM -DZ BR BKN008
     FM220500 29005KT 4SM BR BKN010
     FM221400 30009KT P6SM FEW030
     FM222000 28010G15KT P6SM SCT035=



000
FTUS41 KRLX 212337
TAFCKB
TAF
KCKB 212337Z 2200/2224 30005KT 6SM -DZ BKN020
     FM220400 VRB03KT 4SM BR SCT025
     FM221000 25008KT P6SM SCT040
     FM221800 25011G19KT P6SM BKN060
     FM222200 28010G17KT P6SM SCT045=



000
FTUS41 KRLX 212337
TAFEKN
TAF
KEKN 212337Z 2200/2224 31004KT 3SM -DZ BR BKN015
     FM220600 29004KT 2SM BR BKN020
     FM220800 29004KT 1SM BR SCT001 SCT020
     FM221200 28008KT 3SM BR FEW025
     FM221300 28012G20KT P6SM SCT035
     FM221800 27012G20KT P6SM BKN040=



000
FTUS41 KRLX 212337
TAFCKB
TAF
KCKB 212337Z 2200/2224 30005KT 6SM -DZ BKN020
     FM220400 VRB03KT 4SM BR SCT025
     FM221000 25008KT P6SM SCT040
     FM221800 25011G19KT P6SM BKN060
     FM222200 28010G17KT P6SM SCT045=



000
FTUS41 KRLX 212337
TAFHTS
TAF
KHTS 212337Z 2200/2224 32006KT P6SM BKN025
     FM220100 31005KT P6SM BKN035
     FM220300 29004KT 6SM BR SCT035
     FM220600 25003KT 3SM BR FEW030
     FM221200 26008KT 5SM BR FEW035
     FM221300 30008KT P6SM SCT040=



000
FTUS41 KRLX 212337
TAFBKW
TAF
KBKW 212337Z 2200/2224 32009KT 6SM -DZ BR BKN008
     FM220500 29005KT 4SM BR BKN010
     FM221400 30009KT P6SM FEW030
     FM222000 28010G15KT P6SM SCT035=



000
FTUS41 KRLX 212337
TAFEKN
TAF
KEKN 212337Z 2200/2224 31004KT 3SM -DZ BR BKN015
     FM220600 29004KT 2SM BR BKN020
     FM220800 29004KT 1SM BR SCT001 SCT020
     FM221200 28008KT 3SM BR FEW025
     FM221300 28012G20KT P6SM SCT035
     FM221800 27012G20KT P6SM BKN040=



000
FTUS41 KRLX 212337
TAFPKB
TAF
KPKB 212337Z 2200/2224 31005KT P6SM BKN035
     FM220300 VRB03KT P6SM SCT025
     FM220800 00000KT 5SM BR FEW020
     FM221200 25008KT P6SM FEW040
     FM221700 26010G17KT P6SM BKN050
     FM222300 32008KT P6SM FEW045=



000
FTUS41 KRLX 212337
TAFCRW
TAF
KCRW 212337Z 2200/2224 31007KT 4SM -DZ BR SCT001 BKN025
     FM220300 30005KT 3SM BR SCT001 BKN025
     FM220600 00000KT 2SM BR SCT001 SCT030
     FM221200 25004KT 5SM BR FEW001 FEW030
     FM221300 25006KT P6SM FEW035=



000
FTUS41 KRLX 212337
TAFPKB
TAF
KPKB 212337Z 2200/2224 31005KT P6SM BKN035
     FM220300 VRB03KT P6SM SCT025
     FM220800 00000KT 5SM BR FEW020
     FM221200 25008KT P6SM FEW040
     FM221700 26010G17KT P6SM BKN050
     FM222300 32008KT P6SM FEW045=



000
FTUS41 KRLX 212337
TAFCRW
TAF
KCRW 212337Z 2200/2224 31007KT 4SM -DZ BR SCT001 BKN025
     FM220300 30005KT 3SM BR SCT001 BKN025
     FM220600 00000KT 2SM BR SCT001 SCT030
     FM221200 25004KT 5SM BR FEW001 FEW030
     FM221300 25006KT P6SM FEW035=



000
FTUS41 KRLX 212202 AAA
TAFBKW
TAF AMD
KBKW 212202Z 2122/2218 31007KT 2SM -RA BR OVC005
     FM212300 32009KT P6SM BKN010
     FM220500 29005KT P6SM BKN045
     FM220800 29005KT P6SM SCT110
     FM221400 30009KT P6SM FEW250=



000
FTUS41 KRLX 212105 AAA
TAFCKB
TAF AMD
KCKB 212105Z 2121/2218 30004KT 2SM -RA BR BKN009 OVC015
     FM212300 30005KT P6SM BKN025
     FM220500 VRB03KT P6SM SCT045
     FM220900 VRB03KT P6SM SCT150
     FM221400 25008KT P6SM SCT250=



000
FTUS41 KRLX 212103 AAB
TAFCRW
TAF AMD
KCRW 212103Z 2121/2218 29005KT 2SM -DZ SCT004 OVC025
     FM212200 31006KT P6SM BKN025
     FM220300 00000KT P6SM BKN025
     FM220500 VRB03KT P6SM SCT045
     FM220900 00000KT P6SM FEW150
     FM221300 25006KT P6SM FEW250=



000
FTUS41 KRLX 211944 AAA
TAFCRW
TAF AMD
KCRW 211944Z 2120/2218 29005KT 2SM -DZ BKN004 OVC010
     FM212100 31006KT P6SM BKN015
     FM212300 31006KT P6SM BKN025
     FM220300 00000KT P6SM BKN025
     FM220500 VRB03KT P6SM SCT045
     FM220900 00000KT P6SM FEW150
     FM221300 25006KT P6SM FEW250=



000
FTUS41 KRLX 211944 AAA
TAFCRW
TAF AMD
KCRW 211944Z 2120/2218 29005KT 2SM -DZ BKN004 OVC010
     FM212100 31006KT P6SM BKN015
     FM212300 31006KT P6SM BKN025
     FM220300 00000KT P6SM BKN025
     FM220500 VRB03KT P6SM SCT045
     FM220900 00000KT P6SM FEW150
     FM221300 25006KT P6SM FEW250=



000
FTUS41 KRLX 211927 AAB
TAFEKN
TAF AMD
KEKN 211927Z 2119/2218 VRB03KT 3SM -RA OVC015
     FM212000 29004KT P6SM BKN015
     FM212200 30005KT P6SM BKN025
     FM220600 29004KT P6SM BKN030
     FM220700 29004KT P6SM SCT025
     FM221200 28008KT P6SM FEW040
     FM221500 28012KT P6SM FEW150=



000
FTUS41 KRLX 211927 AAB
TAFEKN
TAF AMD
KEKN 211927Z 2119/2218 VRB03KT 3SM -RA OVC015
     FM212000 29004KT P6SM BKN015
     FM212200 30005KT P6SM BKN025
     FM220600 29004KT P6SM BKN030
     FM220700 29004KT P6SM SCT025
     FM221200 28008KT P6SM FEW040
     FM221500 28012KT P6SM FEW150=



000
FTUS41 KRLX 211839 AAA
TAFEKN
TAF AMD
KEKN 211839Z 2119/2218 VRB03KT P6SM BKN010 OVC020
     FM212000 29004KT P6SM BKN015
     FM212200 30005KT P6SM BKN025
     FM220600 29004KT P6SM BKN030
     FM220700 29004KT P6SM SCT025
     FM221200 28008KT P6SM FEW040
     FM221500 28012KT P6SM FEW150=



000
FTUS41 KRLX 211839 AAA
TAFEKN
TAF AMD
KEKN 211839Z 2119/2218 VRB03KT P6SM BKN010 OVC020
     FM212000 29004KT P6SM BKN015
     FM212200 30005KT P6SM BKN025
     FM220600 29004KT P6SM BKN030
     FM220700 29004KT P6SM SCT025
     FM221200 28008KT P6SM FEW040
     FM221500 28012KT P6SM FEW150=



000
FTUS41 KRLX 211722
TAFEKN
TAF
KEKN 211722Z 2118/2218 VRB03KT 3SM BR BKN005
     FM212000 29004KT P6SM BKN015
     FM212200 30005KT P6SM BKN025
     FM220600 29004KT P6SM BKN030
     FM220700 29004KT P6SM SCT025
     FM221200 28008KT P6SM FEW040
     FM221500 28012KT P6SM FEW150=



000
FTUS41 KRLX 211722
TAFPKB
TAF
KPKB 211722Z 2118/2218 28005KT P6SM BKN015
     FM212300 31005KT P6SM BKN025
     FM220400 VRB03KT P6SM SCT025
     FM220900 00000KT P6SM FEW150
     FM221300 25006KT P6SM FEW250
     FM221700 26010KT P6SM SCT120=



000
FTUS41 KRLX 211722
TAFBKW
TAF
KBKW 211722Z 2118/2218 30006KT 2SM BR OVC001
     FM211830 31006KT 3SM BR OVC005
     FM211900 30006KT 5SM BR BKN008
     FM212100 31007KT P6SM BKN015
     FM212300 32009KT P6SM BKN025
     FM220500 29005KT P6SM BKN045
     FM220800 29005KT P6SM SCT110
     FM221400 30009KT P6SM FEW250=



000
FTUS41 KRLX 211722
TAFCKB
TAF
KCKB 211722Z 2118/2218 VRB03KT P6SM BKN010
     FM212000 30004KT P6SM BKN015
     FM212300 30005KT P6SM BKN025
     FM220500 VRB03KT P6SM SCT045
     FM220900 VRB03KT P6SM SCT150
     FM221400 25008KT P6SM SCT250=



000
FTUS41 KRLX 211722
TAFHTS
TAF
KHTS 211722Z 2118/2218 VRB04KT P6SM OVC010
     FM212300 31006KT P6SM BKN025
     FM220300 00000KT P6SM BKN025
     FM220400 00000KT P6SM SCT025
     FM220900 00000KT P6SM FEW150
     FM221200 25006KT P6SM FEW250=



000
FTUS41 KRLX 211722
TAFCRW
TAF
KCRW 211722Z 2118/2218 29005KT P6SM BKN004 OVC010
     FM212100 31006KT P6SM BKN015
     FM212300 31006KT P6SM BKN025
     FM220300 00000KT P6SM BKN025
     FM220500 VRB03KT P6SM SCT045
     FM220900 00000KT P6SM FEW150
     FM221300 25006KT P6SM FEW250=



000
FTUS41 KRLX 211722
TAFCKB
TAF
KCKB 211722Z 2118/2218 VRB03KT P6SM BKN010
     FM212000 30004KT P6SM BKN015
     FM212300 30005KT P6SM BKN025
     FM220500 VRB03KT P6SM SCT045
     FM220900 VRB03KT P6SM SCT150
     FM221400 25008KT P6SM SCT250=



000
FTUS41 KRLX 211722
TAFHTS
TAF
KHTS 211722Z 2118/2218 VRB04KT P6SM OVC010
     FM212300 31006KT P6SM BKN025
     FM220300 00000KT P6SM BKN025
     FM220400 00000KT P6SM SCT025
     FM220900 00000KT P6SM FEW150
     FM221200 25006KT P6SM FEW250=



000
FTUS41 KRLX 211722
TAFCRW
TAF
KCRW 211722Z 2118/2218 29005KT P6SM BKN004 OVC010
     FM212100 31006KT P6SM BKN015
     FM212300 31006KT P6SM BKN025
     FM220300 00000KT P6SM BKN025
     FM220500 VRB03KT P6SM SCT045
     FM220900 00000KT P6SM FEW150
     FM221300 25006KT P6SM FEW250=



000
FTUS41 KRLX 211722
TAFPKB
TAF
KPKB 211722Z 2118/2218 28005KT P6SM BKN015
     FM212300 31005KT P6SM BKN025
     FM220400 VRB03KT P6SM SCT025
     FM220900 00000KT P6SM FEW150
     FM221300 25006KT P6SM FEW250
     FM221700 26010KT P6SM SCT120=



000
FTUS41 KRLX 211722
TAFBKW
TAF
KBKW 211722Z 2118/2218 30006KT 2SM BR OVC001
     FM211830 31006KT 3SM BR OVC005
     FM211900 30006KT 5SM BR BKN008
     FM212100 31007KT P6SM BKN015
     FM212300 32009KT P6SM BKN025
     FM220500 29005KT P6SM BKN045
     FM220800 29005KT P6SM SCT110
     FM221400 30009KT P6SM FEW250=



000
FTUS41 KRLX 211722
TAFEKN
TAF
KEKN 211722Z 2118/2218 VRB03KT 3SM BR BKN005
     FM212000 29004KT P6SM BKN015
     FM212200 30005KT P6SM BKN025
     FM220600 29004KT P6SM BKN030
     FM220700 29004KT P6SM SCT025
     FM221200 28008KT P6SM FEW040
     FM221500 28012KT P6SM FEW150=



000
FTUS41 KRLX 211525 AAB
TAFCKB
TAF AMD
KCKB 211525Z 2115/2212 03004KT 6SM -RA BR SCT006 OVC025
      TEMPO 2115/2117 5SM -RA BR BKN006
     FM211700 VRB03KT 6SM -RA OVC030
     FM211800 00000KT P6SM OVC020
     FM211900 00000KT P6SM BKN025
     FM220500 VRB03KT P6SM SCT045
     FM220900 VRB03KT P6SM FEW150=



000
FTUS41 KRLX 211523 AAD
TAFEKN
TAF AMD
KEKN 211523Z 2115/2212 00000KT 3SM -RA BR SCT005 OVC010
      TEMPO 2115/2118 2SM -RA BR OVC005
     FM211800 00000KT 5SM -RA BR OVC015
     FM211900 00000KT P6SM OVC015
     FM212100 30005KT P6SM BKN025
     FM220600 29004KT P6SM SCT030=



000
FTUS41 KRLX 211520 AAC
TAFBKW
TAF AMD
KBKW 211520Z 2115/2212 00000KT 3SM -RA BR SCT003 OVC010
      TEMPO 2115/2118 2SM -RA BR OVC003
     FM211800 00000KT P6SM OVC025
     FM211900 30006KT P6SM BKN025
     FM220500 29005KT P6SM BKN045
     FM220800 29005KT P6SM SCT110=



000
FTUS41 KRLX 211519 AAC
TAFCRW
TAF AMD
KCRW 211519Z 2115/2212 VRB03KT 5SM BR SCT003 OVC010
      TEMPO 2115/2117 2SM -RA BR BKN003
     FM211700 VRB03KT P6SM OVC035
     FM220000 31005KT P6SM BKN025
     FM220300 00000KT P6SM BKN025
     FM220500 00000KT P6SM SCT045
     FM220900 00000KT P6SM SCT150=



000
FTUS41 KRLX 211403 AAB
TAFBKW
TAF AMD
KBKW 211403Z 2114/2212 00000KT 3SM -RA BR SCT005 OVC015
      TEMPO 2114/2115 2SM -RA BR OVC005
     FM211500 00000KT P6SM OVC025
     FM211900 30006KT P6SM BKN025
     FM220500 29005KT P6SM BKN045
     FM220800 29005KT P6SM SCT110=



000
FTUS41 KRLX 211401 AAC
TAFEKN
TAF AMD
KEKN 211401Z 2114/2212 00000KT 3SM -RA BR BKN015 OVC025
      TEMPO 2114/2115 BKN007 BKN015
     FM211500 00000KT 5SM -RA BR OVC015
     FM211600 00000KT P6SM OVC015
     FM212100 30005KT P6SM BKN025
     FM220600 29004KT P6SM SCT030=



000
FTUS41 KRLX 211314 AAA
TAFBKW
TAF AMD
KBKW 211314Z 2113/2212 00000KT 3SM -RA BR SCT008 OVC015
     FM211500 00000KT P6SM OVC025
     FM211900 30006KT P6SM BKN025
     FM220500 29005KT P6SM BKN045
     FM220800 29005KT P6SM SCT110=



000
FTUS41 KRLX 211312 AAB
TAFEKN
TAF AMD
KEKN 211312Z 2113/2212 00000KT 3SM -RA BR BKN010 OVC025
     FM211400 00000KT 5SM -RA BR OVC015
     FM211500 00000KT P6SM OVC015
     FM212100 30005KT P6SM BKN025
     FM220600 29004KT P6SM SCT030=



000
FTUS41 KRLX 211310 AAA
TAFCKB
TAF AMD
KCKB 211310Z 2113/2212 03004KT 5SM -RA SCT006 OVC025
      TEMPO 2113/2115 2SM -RA BR BKN006
     FM211500 VRB03KT 6SM -RA OVC030
     FM211600 00000KT P6SM OVC020
     FM211700 00000KT P6SM BKN025
     FM220500 VRB03KT P6SM SCT045
     FM220900 VRB03KT P6SM FEW150=



000
FTUS41 KRLX 211308 AAB
TAFCRW
TAF AMD
KCRW 211308Z 2113/2212 VRB03KT 5SM BR SCT002 OVC025
      TEMPO 2113/2115 1SM -RA BR BKN002
     FM211500 VRB03KT P6SM OVC035
     FM220000 31005KT P6SM BKN025
     FM220300 00000KT P6SM BKN025
     FM220500 00000KT P6SM SCT045
     FM220900 00000KT P6SM SCT150=



000
FTUS41 KRLX 211307 AAA
TAFHTS
TAF AMD
KHTS 211307Z 2113/2212 VRB03KT P6SM SCT005 OVC025
      TEMPO 2113/2115 2SM BR BKN005
     FM211500 VRB03KT P6SM OVC030
     FM220400 00000KT P6SM SCT025
     FM220900 00000KT P6SM FEW150=



000
FTUS41 KRLX 211305 AAA
TAFCRW
TAF AMD
KCRW 211305Z 2113/2212 VRB03KT 5SM -RA OVC025
      TEMPO 2113/2114 1SM -RA BR BKN002
     FM211500 VRB03KT P6SM OVC035
     FM220000 31005KT P6SM BKN025
     FM220300 00000KT P6SM BKN025
     FM220500 00000KT P6SM SCT045
     FM220900 00000KT P6SM SCT150=



000
FTUS41 KRLX 211223 AAA
TAFEKN
TAF AMD
KEKN 211223Z 2112/2212 00000KT 3SM -RA BKN006 OVC025
     FM211400 00000KT 6SM -RA OVC020
     FM211500 00000KT P6SM OVC015
     FM212100 30005KT P6SM BKN025
     FM220600 29004KT P6SM SCT030=



000
FTUS41 KRLX 211223 AAA
TAFEKN
TAF AMD
KEKN 211223Z 2112/2212 00000KT 3SM -RA BKN006 OVC025
     FM211400 00000KT 6SM -RA OVC020
     FM211500 00000KT P6SM OVC015
     FM212100 30005KT P6SM BKN025
     FM220600 29004KT P6SM SCT030=



000
FTUS41 KRLX 211152
TAFPKB
TAF
KPKB 211152Z 2112/2212 VRB03KT P6SM OVC045
     FM211500 00000KT P6SM OVC030
     FM212000 31006KT P6SM BKN025
     FM220400 VRB03KT P6SM SCT025
     FM220900 00000KT P6SM FEW150=



000
FTUS41 KRLX 211152
TAFCRW
TAF
KCRW 211152Z 2112/2212 VRB03KT 6SM -RA OVC035
      TEMPO 2112/2113 2SM -RA BR BKN005
     FM211300 VRB03KT P6SM OVC035
     FM220000 31005KT P6SM BKN025
     FM220300 00000KT P6SM BKN025
     FM220500 00000KT P6SM SCT045
     FM220900 00000KT P6SM SCT150=



000
FTUS41 KRLX 211152
TAFBKW
TAF
KBKW 211152Z 2112/2212 00000KT 2SM -RA OVC035
     FM211300 00000KT P6SM OVC009
     FM211900 30006KT P6SM BKN025
     FM220500 29005KT P6SM BKN045
     FM220800 29005KT P6SM SCT110=



000
FTUS41 KRLX 211152
TAFCKB
TAF
KCKB 211152Z 2112/2212 03004KT 6SM -RA OVC035
      TEMPO 2112/2113 2SM -RA BR BKN007
     FM211300 VRB03KT 6SM -RA OVC030
     FM211500 00000KT P6SM OVC020
     FM211700 00000KT P6SM BKN025
     FM220500 VRB03KT P6SM SCT045
     FM220900 VRB03KT P6SM FEW150=



000
FTUS41 KRLX 211152
TAFHTS
TAF
KHTS 211152Z 2112/2212 VRB03KT P6SM OVC045
      TEMPO 2112/2113 2SM -RA BR BKN006
     FM211500 VRB03KT P6SM OVC030
     FM220400 00000KT P6SM SCT025
     FM220900 00000KT P6SM FEW150=



000
FTUS41 KRLX 211152
TAFEKN
TAF
KEKN 211152Z 2112/2212 00000KT 3SM -RA OVC030
     FM211400 00000KT 6SM -RA OVC020
     FM211500 00000KT P6SM OVC015
     FM212100 30005KT P6SM BKN025
     FM220600 29004KT P6SM SCT030=



000
FTUS41 KRLX 211152
TAFCKB
TAF
KCKB 211152Z 2112/2212 03004KT 6SM -RA OVC035
      TEMPO 2112/2113 2SM -RA BR BKN007
     FM211300 VRB03KT 6SM -RA OVC030
     FM211500 00000KT P6SM OVC020
     FM211700 00000KT P6SM BKN025
     FM220500 VRB03KT P6SM SCT045
     FM220900 VRB03KT P6SM FEW150=



000
FTUS41 KRLX 211152
TAFCRW
TAF
KCRW 211152Z 2112/2212 VRB03KT 6SM -RA OVC035
      TEMPO 2112/2113 2SM -RA BR BKN005
     FM211300 VRB03KT P6SM OVC035
     FM220000 31005KT P6SM BKN025
     FM220300 00000KT P6SM BKN025
     FM220500 00000KT P6SM SCT045
     FM220900 00000KT P6SM SCT150=



000
FTUS41 KRLX 211152
TAFBKW
TAF
KBKW 211152Z 2112/2212 00000KT 2SM -RA OVC035
     FM211300 00000KT P6SM OVC009
     FM211900 30006KT P6SM BKN025
     FM220500 29005KT P6SM BKN045
     FM220800 29005KT P6SM SCT110=



000
FTUS41 KRLX 211152
TAFEKN
TAF
KEKN 211152Z 2112/2212 00000KT 3SM -RA OVC030
     FM211400 00000KT 6SM -RA OVC020
     FM211500 00000KT P6SM OVC015
     FM212100 30005KT P6SM BKN025
     FM220600 29004KT P6SM SCT030=



000
FTUS41 KRLX 211152
TAFPKB
TAF
KPKB 211152Z 2112/2212 VRB03KT P6SM OVC045
     FM211500 00000KT P6SM OVC030
     FM212000 31006KT P6SM BKN025
     FM220400 VRB03KT P6SM SCT025
     FM220900 00000KT P6SM FEW150=



000
FTUS41 KRLX 211152
TAFHTS
TAF
KHTS 211152Z 2112/2212 VRB03KT P6SM OVC045
      TEMPO 2112/2113 2SM -RA BR BKN006
     FM211500 VRB03KT P6SM OVC030
     FM220400 00000KT P6SM SCT025
     FM220900 00000KT P6SM FEW150=



000
FTUS41 KRLX 211039 AAB
TAFHTS
TAF AMD
KHTS 211039Z 2111/2206 35005KT P6SM BKN050
      TEMPO 2111/2113 2SM -RA BKN005
     FM211700 32005KT P6SM SCT025
     FM212000 32007KT P6SM BKN025
     FM220200 30005KT P6SM SCT025
     FM220400 VRB03KT P6SM SCT025=



000
FTUS41 KRLX 211038 AAB
TAFCRW
TAF AMD
KCRW 211038Z 2111/2206 04005KT 6SM -RA BR BKN035 BKN060
      TEMPO 2111/2113 2SM -RA BKN007
     FM211400 VRB03KT P6SM BKN025
     FM212100 VRB03KT P6SM SCT025
     FM220500 VRB03KT P6SM SCT045=



000
FTUS41 KRLX 210829 AAA
TAFEKN
TAF AMD
KEKN 210829Z 2108/2206 00000KT 6SM -RA BKN050
      TEMPO 2109/2113 6SM -RA BKN040
     FM211400 00000KT P6SM BKN015
     FM212100 30006KT P6SM BKN025
     FM220500 29004KT P6SM SCT030=



000
FTUS41 KRLX 210829 AAA
TAFPKB
TAF AMD
KPKB 210829Z 2108/2206 34004KT P6SM OVC080
      TEMPO 2109/2111 6SM -RA BKN040
     FM211600 VRB03KT P6SM BKN025=



000
FTUS41 KRLX 210829 AAA
TAFBKW
TAF AMD
KBKW 210829Z 2108/2206 00000KT 6SM -RA OVC060
      TEMPO 2109/2113 6SM -RA BKN040
     FM211400 VRB03KT P6SM BKN020
     FM211500 29004KT P6SM BKN025
     FM212200 31008KT P6SM BKN025
     FM220500 30004KT P6SM SCT045=



000
FTUS41 KRLX 210829 AAA
TAFCKB
TAF AMD
KCKB 210829Z 2108/2206 VRB03KT 6SM -RA BKN050
      TEMPO 2109/2113 6SM -RA BKN040
     FM211300 VRB03KT P6SM BKN015
     FM211700 VRB03KT P6SM BKN025
     FM220200 30004KT P6SM SCT025
     FM220500 VRB03KT P6SM SCT045=



000
FTUS41 KRLX 210829 AAA
TAFHTS
TAF AMD
KHTS 210829Z 2108/2206 02005KT P6SM BKN050
      TEMPO 2109/2112 4SM -RA BKN040
     FM211700 32005KT P6SM SCT025
     FM212000 32007KT P6SM BKN025
     FM220200 30005KT P6SM SCT025
     FM220400 VRB03KT P6SM SCT025=



000
FTUS41 KRLX 210829 AAA
TAFCKB
TAF AMD
KCKB 210829Z 2108/2206 VRB03KT 6SM -RA BKN050
      TEMPO 2109/2113 6SM -RA BKN040
     FM211300 VRB03KT P6SM BKN015
     FM211700 VRB03KT P6SM BKN025
     FM220200 30004KT P6SM SCT025
     FM220500 VRB03KT P6SM SCT045=



000
FTUS41 KRLX 210829 AAA
TAFHTS
TAF AMD
KHTS 210829Z 2108/2206 02005KT P6SM BKN050
      TEMPO 2109/2112 4SM -RA BKN040
     FM211700 32005KT P6SM SCT025
     FM212000 32007KT P6SM BKN025
     FM220200 30005KT P6SM SCT025
     FM220400 VRB03KT P6SM SCT025=



000
FTUS41 KRLX 210829 AAA
TAFEKN
TAF AMD
KEKN 210829Z 2108/2206 00000KT 6SM -RA BKN050
      TEMPO 2109/2113 6SM -RA BKN040
     FM211400 00000KT P6SM BKN015
     FM212100 30006KT P6SM BKN025
     FM220500 29004KT P6SM SCT030=



000
FTUS41 KRLX 210829 AAA
TAFBKW
TAF AMD
KBKW 210829Z 2108/2206 00000KT 6SM -RA OVC060
      TEMPO 2109/2113 6SM -RA BKN040
     FM211400 VRB03KT P6SM BKN020
     FM211500 29004KT P6SM BKN025
     FM212200 31008KT P6SM BKN025
     FM220500 30004KT P6SM SCT045=



000
FTUS41 KRLX 210829 AAA
TAFPKB
TAF AMD
KPKB 210829Z 2108/2206 34004KT P6SM OVC080
      TEMPO 2109/2111 6SM -RA BKN040
     FM211600 VRB03KT P6SM BKN025=



000
FTUS41 KRLX 210829 AAA
TAFCRW
TAF AMD
KCRW 210829Z 2108/2206 04005KT P6SM SCT040 BKN060
      TEMPO 2109/2113 4SM -RA BKN040
     FM211400 VRB03KT P6SM BKN025
     FM212100 VRB03KT P6SM SCT025
     FM220500 VRB03KT P6SM SCT045=



000
FTUS41 KRLX 210829 AAA
TAFCRW
TAF AMD
KCRW 210829Z 2108/2206 04005KT P6SM SCT040 BKN060
      TEMPO 2109/2113 4SM -RA BKN040
     FM211400 VRB03KT P6SM BKN025
     FM212100 VRB03KT P6SM SCT025
     FM220500 VRB03KT P6SM SCT045=



000
FTUS41 KRLX 210539
TAFEKN
TAF
KEKN 210539Z 2106/2206 00000KT P6SM BKN100
      TEMPO 2106/2109 6SM -SHRA BKN040
     FM210900 VRB03KT 6SM -SHRA BKN045
     FM211100 00000KT 6SM -SHRA BKN015
     FM211400 00000KT 6SM -SHRA BKN025
     FM211600 VRB03KT P6SM BKN020
     FM220300 30005KT P6SM SCT030=



000
FTUS41 KRLX 210539
TAFBKW
TAF
KBKW 210539Z 2106/2206 VRB03KT 6SM -SHRA BKN060
     FM211100 VRB03KT 6SM -SHRA OVC025
     FM211200 00000KT 6SM -SHRA OVC020
     FM211400 VRB03KT P6SM BKN020
     FM211600 30005KT P6SM BKN025
     FM220200 31006KT P6SM SCT025=



000
FTUS41 KRLX 210539
TAFCRW
TAF
KCRW 210539Z 2106/2206 00000KT P6SM SCT040 BKN070
     FM210800 03004KT 6SM SHRA BKN060
     FM211000 01004KT P6SM BKN035
     FM211200 VRB03KT P6SM BKN020
     FM211700 30004KT P6SM BKN025
     FM212300 32006KT P6SM SCT025=



000
FTUS41 KRLX 210539
TAFCKB
TAF
KCKB 210539Z 2106/2206 02003KT P6SM BKN100
      TEMPO 2106/2109 6SM -SHRA BKN040
     FM210900 VRB03KT 6SM -SHRA BKN060
     FM211100 VRB03KT 6SM -SHRA BKN030
     FM211300 VRB03KT P6SM BKN015
     FM211700 VRB03KT P6SM BKN025
     FM220200 30004KT P6SM SCT025=



000
FTUS41 KRLX 210539
TAFHTS
TAF
KHTS 210539Z 2106/2206 VRB03KT P6SM BKN070
     FM210700 02004KT 6SM SHRA BKN060
     FM210900 03005KT P6SM BKN025
     FM211700 32005KT P6SM SCT025=



000
FTUS41 KRLX 210539
TAFPKB
TAF
KPKB 210539Z 2106/2206 02004KT 6SM -RA OVC100
     FM210900 02004KT 6SM -SHRA BR BKN040
     FM211200 02004KT P6SM BKN030
     FM211400 VRB03KT P6SM BKN035
     FM211700 33004KT P6SM BKN030
     FM212200 31006KT P6SM SCT025
     FM220500 00000KT P6SM SCT025=



000
FTUS41 KRLX 210237 AAB
TAFPKB
TAF AMD
KPKB 210237Z 2103/2124 35004KT P6SM BKN080
     FM210700 00000KT 5SM -SHRA BR BKN050
     FM211300 34003KT P6SM BKN025
     FM211700 32004KT P6SM SCT025=



000
FTUS41 KRLX 210237 AAB
TAFHTS
TAF AMD
KHTS 210237Z 2103/2124 VRB03KT P6SM BKN070
     FM210600 VRB03KT 5SM -SHRA BKN040
     FM210900 33005KT 3SM -SHRA BR BKN030
     FM211300 34005KT P6SM BKN025
     FM211700 32005KT P6SM SCT030=



000
FTUS41 KRLX 210237 AAB
TAFEKN
TAF AMD
KEKN 210237Z 2103/2124 VRB03KT P6SM SCT200
     FM210900 00000KT 5SM -SHRA BKN045
     FM211200 01003KT 2SM -SHRA BR OVC015
     FM211500 29004KT P6SM BKN020
     FM212200 31006KT P6SM BKN030=



000
FTUS41 KRLX 210237 AAB
TAFBKW
TAF AMD
KBKW 210237Z 2103/2124 VRB03KT P6SM SCT200
     FM210900 VRB03KT 5SM -SHRA BKN050
     FM211100 02004KT 3SM -SHRA BR OVC010
     FM211400 27004KT P6SM BKN015=



000
FTUS41 KRLX 210237 AAB
TAFCRW
TAF AMD
KCRW 210237Z 2103/2124 05005KT P6SM BKN080
     FM210700 00000KT 5SM -SHRA BKN030
     FM210900 00000KT 2SM -SHRA BR OVC015
     FM211400 30005KT P6SM BKN025
     FM212300 33004KT P6SM SCT025=



000
FTUS41 KRLX 210237 AAB
TAFCKB
TAF AMD
KCKB 210237Z 2103/2124 VRB03KT P6SM SCT150
     FM210800 00000KT 6SM -SHRA BR BKN040
     FM211200 VRB03KT 3SM -SHRA BKN020
     FM211500 30004KT P6SM BKN025=



000
FTUS41 KRLX 210237 AAB
TAFCRW
TAF AMD
KCRW 210237Z 2103/2124 05005KT P6SM BKN080
     FM210700 00000KT 5SM -SHRA BKN030
     FM210900 00000KT 2SM -SHRA BR OVC015
     FM211400 30005KT P6SM BKN025
     FM212300 33004KT P6SM SCT025=



000
FTUS41 KRLX 210237 AAB
TAFPKB
TAF AMD
KPKB 210237Z 2103/2124 35004KT P6SM BKN080
     FM210700 00000KT 5SM -SHRA BR BKN050
     FM211300 34003KT P6SM BKN025
     FM211700 32004KT P6SM SCT025=



000
FTUS41 KRLX 210237 AAB
TAFCKB
TAF AMD
KCKB 210237Z 2103/2124 VRB03KT P6SM SCT150
     FM210800 00000KT 6SM -SHRA BR BKN040
     FM211200 VRB03KT 3SM -SHRA BKN020
     FM211500 30004KT P6SM BKN025=



000
FTUS41 KRLX 210237 AAB
TAFBKW
TAF AMD
KBKW 210237Z 2103/2124 VRB03KT P6SM SCT200
     FM210900 VRB03KT 5SM -SHRA BKN050
     FM211100 02004KT 3SM -SHRA BR OVC010
     FM211400 27004KT P6SM BKN015=



000
FTUS41 KRLX 210237 AAB
TAFHTS
TAF AMD
KHTS 210237Z 2103/2124 VRB03KT P6SM BKN070
     FM210600 VRB03KT 5SM -SHRA BKN040
     FM210900 33005KT 3SM -SHRA BR BKN030
     FM211300 34005KT P6SM BKN025
     FM211700 32005KT P6SM SCT030=



000
FTUS41 KRLX 210237 AAB
TAFEKN
TAF AMD
KEKN 210237Z 2103/2124 VRB03KT P6SM SCT200
     FM210900 00000KT 5SM -SHRA BKN045
     FM211200 01003KT 2SM -SHRA BR OVC015
     FM211500 29004KT P6SM BKN020
     FM212200 31006KT P6SM BKN030=



000
FTUS41 KRLX 210005 CCA
TAFCRW
TAF COR
KCRW 210005Z 2100/2124 00000KT P6SM SCT150
     FM210800 00000KT P6SM BKN110
     FM210900 00000KT 5SM -SHRA BKN030
     FM211000 00000KT 2SM -SHRA BR OVC015
     FM211400 30005KT P6SM BKN025
     FM212300 33004KT P6SM SCT025=



000
FTUS41 KRLX 210005 CCA
TAFCRW
TAF COR
KCRW 210005Z 2100/2124 00000KT P6SM SCT150
     FM210800 00000KT P6SM BKN110
     FM210900 00000KT 5SM -SHRA BKN030
     FM211000 00000KT 2SM -SHRA BR OVC015
     FM211400 30005KT P6SM BKN025
     FM212300 33004KT P6SM SCT025=



000
FTUS41 KRLX 202347 RRA
TAFPKB
TAF
KPKB 202347Z 2100/2124 35004KT P6SM SCT150
     FM211000 00000KT 5SM SHRA BR BKN050
     FM211300 34003KT P6SM BKN025
     FM211700 32004KT P6SM SCT025=



000
FTUS41 KRLX 202347 RRA
TAFHTS
TAF
KHTS 202347Z 2100/2124 VRB03KT P6SM SCT150
     FM210700 VRB03KT 5SM -SHRA BKN040
     FM210900 33005KT 3SM BR BKN030
     FM211300 34005KT P6SM BKN025
     FM211700 32005KT P6SM SCT030=



000
FTUS41 KRLX 202347 RRA
TAFBKW
TAF
KBKW 202347Z 2100/2124 VRB03KT P6SM SCT200
     FM210900 VRB03KT 5SM -SHRA BKN050
     FM211100 02004KT 3SM -SHRA BR OVC010
     FM211400 27004KT P6SM BKN015=



000
FTUS41 KRLX 202347 RRA
TAFCKB
TAF
KCKB 202347Z 2100/2124 VRB03KT P6SM SCT150
     FM211000 00000KT 6SM -SHRA BR BKN040
     FM211200 VRB03KT 3SM -SHRA BKN020
     FM211500 30004KT P6SM BKN025=



000
FTUS41 KRLX 202347 RRA
TAFCRW
TAF
KCRW 202347Z 2100/2124 00000KT P6SM SCT150
     FM210800 00000KT P6SM BKN110
     FM210900 00000KT 5SM -SHRA BKN030
     FM211000 00000KT 2SM BR OVC015
     FM211400 30005KT P6SM BKN025
     FM212300 33004KT P6SM SCT025=



000
FTUS41 KRLX 202347 RRA
TAFEKN
TAF
KEKN 202347Z 2100/2124 VRB03KT P6SM SCT200
     FM211000 00000KT 5SM -SHRA BKN045
     FM211200 01003KT 2SM -SHRA BR OVC015
     FM211500 29004KT P6SM BKN020
     FM212200 31006KT P6SM BKN030=



000
FTUS41 KRLX 202347 RRA
TAFCKB
TAF
KCKB 202347Z 2100/2124 VRB03KT P6SM SCT150
     FM211000 00000KT 6SM -SHRA BR BKN040
     FM211200 VRB03KT 3SM -SHRA BKN020
     FM211500 30004KT P6SM BKN025=



000
FTUS41 KRLX 202347 RRA
TAFCRW
TAF
KCRW 202347Z 2100/2124 00000KT P6SM SCT150
     FM210800 00000KT P6SM BKN110
     FM210900 00000KT 5SM -SHRA BKN030
     FM211000 00000KT 2SM BR OVC015
     FM211400 30005KT P6SM BKN025
     FM212300 33004KT P6SM SCT025=



000
FTUS41 KRLX 202347 RRA
TAFEKN
TAF
KEKN 202347Z 2100/2124 VRB03KT P6SM SCT200
     FM211000 00000KT 5SM -SHRA BKN045
     FM211200 01003KT 2SM -SHRA BR OVC015
     FM211500 29004KT P6SM BKN020
     FM212200 31006KT P6SM BKN030=



000
FTUS41 KRLX 202347 RRA
TAFBKW
TAF
KBKW 202347Z 2100/2124 VRB03KT P6SM SCT200
     FM210900 VRB03KT 5SM -SHRA BKN050
     FM211100 02004KT 3SM -SHRA BR OVC010
     FM211400 27004KT P6SM BKN015=



000
FTUS41 KRLX 202347 RRA
TAFPKB
TAF
KPKB 202347Z 2100/2124 35004KT P6SM SCT150
     FM211000 00000KT 5SM SHRA BR BKN050
     FM211300 34003KT P6SM BKN025
     FM211700 32004KT P6SM SCT025=



000
FTUS41 KRLX 202347 RRA
TAFHTS
TAF
KHTS 202347Z 2100/2124 VRB03KT P6SM SCT150
     FM210700 VRB03KT 5SM -SHRA BKN040
     FM210900 33005KT 3SM BR BKN030
     FM211300 34005KT P6SM BKN025
     FM211700 32005KT P6SM SCT030=



000
FTUS41 KRLX 201731 AAA
TAFCRW
TAF AMD
KCRW 201731Z 2018/2118 01004KT P6SM SCT150
     FM210900 01002KT 5SM -SHRA OVC025
     FM211200 02003KT 3SM -SHRA OVC015
     FM211500 34005KT P6SM BKN035=



000
FTUS41 KRLX 201731 AAA
TAFHTS
TAF AMD
KHTS 201731Z 2018/2118 31004KT P6SM SCT150
     FM211000 01002KT P6SM VCSH OVC025
     FM211500 34005KT P6SM BKN035=



000
FTUS41 KRLX 201731 AAA
TAFEKN
TAF AMD
KEKN 201731Z 2018/2118 34006KT P6SM SCT035
     FM202100 31004KT P6SM SCT150
     FM211000 01002KT 5SM -SHRA BR OVC030
     FM211200 02003KT 2SM -SHRA BR OVC010
     FM211500 34005KT P6SM BKN015=



000
FTUS41 KRLX 201731 AAA
TAFCKB
TAF AMD
KCKB 201731Z 2018/2118 33006KT P6SM BKN035
     FM202100 31004KT P6SM SCT150
     FM211000 01002KT 5SM -SHRA OVC030
     FM211200 02003KT 3SM -SHRA OVC015
     FM211500 34005KT P6SM BKN030=



000
FTUS41 KRLX 201731 AAA
TAFBKW
TAF AMD
KBKW 201731Z 2018/2118 32008KT P6SM SCT150
     FM210900 01002KT 5SM -SHRA BR OVC030
     FM211100 02003KT 2SM -SHRA BR OVC010
     FM211300 32003KT 2SM -SHRA BR OVC008
     FM211500 34005KT P6SM BKN015=



000
FTUS41 KRLX 201731 AAA
TAFPKB
TAF AMD
KPKB 201731Z 2018/2118 31004KT P6SM SCT150
     FM211000 01002KT P6SM VCSH OVC030
     FM211500 34005KT P6SM BKN035=



000
FTUS41 KRLX 201731 AAA
TAFCRW
TAF AMD
KCRW 201731Z 2018/2118 01004KT P6SM SCT150
     FM210900 01002KT 5SM -SHRA OVC025
     FM211200 02003KT 3SM -SHRA OVC015
     FM211500 34005KT P6SM BKN035=



000
FTUS41 KRLX 201731 AAA
TAFEKN
TAF AMD
KEKN 201731Z 2018/2118 34006KT P6SM SCT035
     FM202100 31004KT P6SM SCT150
     FM211000 01002KT 5SM -SHRA BR OVC030
     FM211200 02003KT 2SM -SHRA BR OVC010
     FM211500 34005KT P6SM BKN015=



000
FTUS41 KRLX 201731 AAA
TAFPKB
TAF AMD
KPKB 201731Z 2018/2118 31004KT P6SM SCT150
     FM211000 01002KT P6SM VCSH OVC030
     FM211500 34005KT P6SM BKN035=



000
FTUS41 KRLX 201731 AAA
TAFBKW
TAF AMD
KBKW 201731Z 2018/2118 32008KT P6SM SCT150
     FM210900 01002KT 5SM -SHRA BR OVC030
     FM211100 02003KT 2SM -SHRA BR OVC010
     FM211300 32003KT 2SM -SHRA BR OVC008
     FM211500 34005KT P6SM BKN015=



000
FTUS41 KRLX 201731 AAA
TAFCKB
TAF AMD
KCKB 201731Z 2018/2118 33006KT P6SM BKN035
     FM202100 31004KT P6SM SCT150
     FM211000 01002KT 5SM -SHRA OVC030
     FM211200 02003KT 3SM -SHRA OVC015
     FM211500 34005KT P6SM BKN030=



000
FTUS41 KRLX 201731 AAA
TAFHTS
TAF AMD
KHTS 201731Z 2018/2118 31004KT P6SM SCT150
     FM211000 01002KT P6SM VCSH OVC025
     FM211500 34005KT P6SM BKN035=



000
FTUS41 KRLX 201726
TAFHTS
TAF
KHTS 201726Z 2018/2118 31004KT P6SM SCT150
     FM211000 01002KT P6SM VCSH OVC025
     FM211500 34005KT P6SM BKN035=



000
FTUS41 KRLX 201726
TAFPKB
TAF
KPKB 201726Z 2018/2118 31004KT P6SM SCT150
     FM211000 01002KT P6SM VCSH OVC030
     FM211500 34005KT P6SM BKN035=



000
FTUS41 KRLX 201726
TAFCKB
TAF
KCKB 201726Z 2018/2118 33006KT P6SM BKN035
     FM202100 31004KT P6SM SCT150
     FM211000 01002KT 5SM -SHRA OVC030
     FM211200 02003KT 3SM -SHRA OVC015
     FM211500 34005KT P6SM BKN030=



000
FTUS41 KRLX 201726
TAFEKN
TAF
KEKN 201726Z 2018/2118 34006KT P6SM SCT035
     FM202100 31004KT P6SM SCT150
     FM211000 01002KT 5SM -SHRA BR OVC030
     FM211200 02003KT 2SM -SHRA BR OVC010
     FM211500 34005KT P6SM BKN015=



000
FTUS41 KRLX 201726
TAFBKW
TAF
KBKW 201726Z 2018/2118 32008KT P6SM SCT150
     FM210900 01002KT 5SM -SHRA BR OVC030
     FM211100 02003KT 2SM -SHRA BR OVC010
     FM211300 32003KT 2SM -SHRA BR OVC008
     FM211500 34005KT P6SM BKN015=



000
FTUS41 KRLX 201726
TAFCRW
TAF
KCRW 201726Z 2018/2118 01004KT P6SM SCT150
     FM210900 01002KT 5SM -SHRA OVC025
     FM211200 02003KT 3SM -SHRA OVC015
     FM211500 34005KT P6SM BKN035=



000
FTUS41 KRLX 201726
TAFHTS
TAF
KHTS 201726Z 2018/2118 31004KT P6SM SCT150
     FM211000 01002KT P6SM VCSH OVC025
     FM211500 34005KT P6SM BKN035=



000
FTUS41 KRLX 201726
TAFCKB
TAF
KCKB 201726Z 2018/2118 33006KT P6SM BKN035
     FM202100 31004KT P6SM SCT150
     FM211000 01002KT 5SM -SHRA OVC030
     FM211200 02003KT 3SM -SHRA OVC015
     FM211500 34005KT P6SM BKN030=



000
FTUS41 KRLX 201726
TAFEKN
TAF
KEKN 201726Z 2018/2118 34006KT P6SM SCT035
     FM202100 31004KT P6SM SCT150
     FM211000 01002KT 5SM -SHRA BR OVC030
     FM211200 02003KT 2SM -SHRA BR OVC010
     FM211500 34005KT P6SM BKN015=



000
FTUS41 KRLX 201726
TAFPKB
TAF
KPKB 201726Z 2018/2118 31004KT P6SM SCT150
     FM211000 01002KT P6SM VCSH OVC030
     FM211500 34005KT P6SM BKN035=



000
FTUS41 KRLX 201726
TAFCRW
TAF
KCRW 201726Z 2018/2118 01004KT P6SM SCT150
     FM210900 01002KT 5SM -SHRA OVC025
     FM211200 02003KT 3SM -SHRA OVC015
     FM211500 34005KT P6SM BKN035=



000
FTUS41 KRLX 201726
TAFBKW
TAF
KBKW 201726Z 2018/2118 32008KT P6SM SCT150
     FM210900 01002KT 5SM -SHRA BR OVC030
     FM211100 02003KT 2SM -SHRA BR OVC010
     FM211300 32003KT 2SM -SHRA BR OVC008
     FM211500 34005KT P6SM BKN015=



000
FTUS41 KRLX 201628 AAB
TAFCRW
TAF AMD
KCRW 201628Z 2016/2112 31005KT P6SM SCT035
     FM202100 31004KT P6SM SCT150
     FM210800 01002KT 5SM -SHRA OVC025
     FM211000 35003KT 3SM -SHRA OVC015=



000
FTUS41 KRLX 201426 AAA
TAFHTS
TAF AMD
KHTS 201426Z 2014/2112 31005KT P6SM SCT025
      TEMPO 2015/2016 BKN025
     FM202000 31004KT P6SM SCT150
     FM210400 36004KT P6SM OVC050
     FM210600 01002KT 5SM -SHRA OVC025
     FM210900 35003KT 3SM -SHRA OVC015=



000
FTUS41 KRLX 201426 AAA
TAFHTS
TAF AMD
KHTS 201426Z 2014/2112 31005KT P6SM SCT025
      TEMPO 2015/2016 BKN025
     FM202000 31004KT P6SM SCT150
     FM210400 36004KT P6SM OVC050
     FM210600 01002KT 5SM -SHRA OVC025
     FM210900 35003KT 3SM -SHRA OVC015=



000
FTUS41 KRLX 201424 AAA
TAFCRW
TAF AMD
KCRW 201424Z 2014/2112 31005KT P6SM SCT025
      TEMPO 2014/2016 BKN025
     FM202100 31004KT P6SM SCT150
     FM210500 36004KT P6SM OVC050
     FM210800 01002KT 5SM -SHRA OVC025
     FM211000 35003KT 3SM -SHRA OVC015=



000
FTUS41 KRLX 201424 AAA
TAFCRW
TAF AMD
KCRW 201424Z 2014/2112 31005KT P6SM SCT025
      TEMPO 2014/2016 BKN025
     FM202100 31004KT P6SM SCT150
     FM210500 36004KT P6SM OVC050
     FM210800 01002KT 5SM -SHRA OVC025
     FM211000 35003KT 3SM -SHRA OVC015=



000
FTUS41 KRLX 201422 AAA
TAFBKW
TAF AMD
KBKW 201422Z 2014/2112 31005KT P6SM FEW025
     FM210000 31004KT P6SM SCT150
     FM210600 36004KT P6SM OVC050
     FM211000 01002KT 5SM -SHRA OVC025=



000
FTUS41 KRLX 201422 AAA
TAFBKW
TAF AMD
KBKW 201422Z 2014/2112 31005KT P6SM FEW025
     FM210000 31004KT P6SM SCT150
     FM210600 36004KT P6SM OVC050
     FM211000 01002KT 5SM -SHRA OVC025=



000
FTUS41 KRLX 201420 AAA
TAFPKB
TAF AMD
KPKB 201420Z 2014/2112 31005KT P6SM SCT025 BKN035
      TEMPO 2014/2016 BKN025
     FM202100 31004KT P6SM SCT150
     FM210500 36004KT P6SM OVC050
     FM210900 01002KT 5SM -SHRA OVC025=



000
FTUS41 KRLX 201418 AAB
TAFEKN
TAF AMD
KEKN 201418Z 2014/2112 31005KT P6SM SCT025
      TEMPO 2014/2016 BKN025
     FM202100 31004KT P6SM SCT150
     FM210600 36004KT P6SM OVC050
     FM211000 01002KT 5SM -SHRA OVC025=



000
FTUS41 KRLX 201417 AAA
TAFCKB
TAF AMD
KCKB 201417Z 2014/2112 31005KT P6SM SCT025 BKN035
      TEMPO 2014/2016 BKN018
     FM202100 31004KT P6SM SCT150
     FM210600 36004KT P6SM OVC050
     FM211000 01002KT 5SM -SHRA OVC025=



000
FTUS41 KRLX 201417 AAA
TAFCKB
TAF AMD
KCKB 201417Z 2014/2112 31005KT P6SM SCT025 BKN035
      TEMPO 2014/2016 BKN018
     FM202100 31004KT P6SM SCT150
     FM210600 36004KT P6SM OVC050
     FM211000 01002KT 5SM -SHRA OVC025=



000
FTUS41 KRLX 201240 AAA
TAFEKN
TAF AMD
KEKN 201240Z 2013/2112 30005KT P6SM SCT025 BKN035
     FM201600 30006KT P6SM SCT035
     FM202200 31006KT P6SM BKN200=



000
FTUS41 KRLX 201240 AAA
TAFEKN
TAF AMD
KEKN 201240Z 2013/2112 30005KT P6SM SCT025 BKN035
     FM201600 30006KT P6SM SCT035
     FM202200 31006KT P6SM BKN200=



000
FTUS41 KRLX 201100 RRA
TAFHTS
TAF
KHTS 201142Z 2012/2112 36008KT P6SM SCT200
     FM210300 00000KT P6SM BKN100=



000
FTUS41 KRLX 201100 RRA
TAFBKW
TAF
KBKW 201142Z 2012/2112 35007KT P6SM BKN007
     FM201330 36008KT P6SM SCT012
     FM201600 30006KT P6SM FEW110
     FM202300 36005KT P6SM BKN250=



000
FTUS41 KRLX 201100 RRA
TAFCKB
TAF
KCKB 201142Z 2012/2112 32004KT P6SM SCT200
     FM201700 31005KT P6SM SCT025 SCT200
     FM210100 VRB03KT P6SM BKN200=



000
FTUS41 KRLX 201100 RRA
TAFPKB
TAF
KPKB 201142Z 2012/2112 35005KT P6SM SCT050 SCT250
     FM210100 32005KT P6SM BKN035=



000
FTUS41 KRLX 201100 RRA
TAFEKN
TAF
KEKN 201142Z 2012/2112 35005KT P6SM BKN015 OVC025
     FM201400 30005KT P6SM OVC035
     FM201600 30006KT P6SM SCT030
     FM202200 31006KT P6SM BKN200
     FM210200 00000KT P6SM BKN250=



000
FTUS41 KRLX 201100 RRA
TAFEKN
TAF
KEKN 201142Z 2012/2112 35005KT P6SM BKN015 OVC025
     FM201400 30005KT P6SM OVC035
     FM201600 30006KT P6SM SCT030
     FM202200 31006KT P6SM BKN200
     FM210200 00000KT P6SM BKN250=



000
FTUS41 KRLX 201100 RRA
TAFPKB
TAF
KPKB 201142Z 2012/2112 35005KT P6SM SCT050 SCT250
     FM210100 32005KT P6SM BKN035=



000
FTUS41 KRLX 201100 RRA
TAFCKB
TAF
KCKB 201142Z 2012/2112 32004KT P6SM SCT200
     FM201700 31005KT P6SM SCT025 SCT200
     FM210100 VRB03KT P6SM BKN200=



000
FTUS41 KRLX 201100 RRA
TAFCRW
TAF
KCRW 201142Z 2012/2112 VRB03KT P6SM SCT200
     FM201600 36006KT P6SM SCT150
     FM210800 00000KT P6SM BKN110=



000
FTUS41 KRLX 201100 RRA
TAFBKW
TAF
KBKW 201142Z 2012/2112 35007KT P6SM BKN007
     FM201330 36008KT P6SM SCT012
     FM201600 30006KT P6SM FEW110
     FM202300 36005KT P6SM BKN250=



000
FTUS41 KRLX 201100 RRA
TAFHTS
TAF
KHTS 201142Z 2012/2112 36008KT P6SM SCT200
     FM210300 00000KT P6SM BKN100=



000
FTUS41 KRLX 201100 RRA
TAFCRW
TAF
KCRW 201142Z 2012/2112 VRB03KT P6SM SCT200
     FM201600 36006KT P6SM SCT150
     FM210800 00000KT P6SM BKN110=



    US Dept of Commerce
    National Oceanic and Atmospheric Administration
    National Weather Service
    1325 East West Highway
    Silver Spring, MD 20910
    Page Author: NWS Internet Services Team
Disclaimer
Information Quality
Credits
Glossary
Privacy Policy
Freedom of Information Act (FOIA)
About Us
Career Opportunities